createdAt,value
2024-01-09T00:02:20.761Z,7.60
2024-01-09T00:04:51.752Z,6.70
2024-01-09T00:07:22.886Z,6.80
2024-01-09T00:09:54.039Z,8.80
2024-01-09T00:12:25.237Z,7.00
2024-01-09T00:14:56.225Z,8.70
2024-01-09T00:17:27.166Z,9.40
2024-01-09T00:19:58.072Z,7.90
2024-01-09T00:22:29.021Z,7.10
2024-01-09T00:24:59.929Z,6.80
2024-01-09T00:27:30.886Z,7.60
2024-01-09T00:30:01.926Z,6.80
2024-01-09T00:32:33.649Z,6.70
2024-01-09T00:35:04.865Z,7.80
2024-01-09T00:37:35.873Z,7.70
2024-01-09T00:40:09.529Z,8.30
2024-01-09T00:42:40.553Z,7.80
2024-01-09T00:45:13.360Z,8.10
2024-01-09T00:47:44.423Z,7.50
2024-01-09T00:50:15.614Z,7.50
2024-01-09T00:52:46.626Z,7.50
2024-01-09T00:55:20.306Z,8.00
2024-01-09T00:57:51.196Z,6.40
2024-01-09T01:00:23.020Z,5.90
2024-01-09T01:02:54.157Z,8.00
2024-01-09T01:05:25.625Z,6.40
2024-01-09T01:07:56.618Z,7.80
2024-01-09T01:10:27.572Z,6.50
2024-01-09T01:12:58.512Z,8.30
2024-01-09T01:15:29.423Z,10.50
2024-01-09T01:18:00.504Z,8.50
2024-01-09T01:20:32.313Z,8.40
2024-01-09T01:23:03.345Z,8.50
2024-01-09T01:25:34.309Z,6.80
2024-01-09T01:28:05.429Z,6.60
2024-01-09T01:30:36.356Z,9.00
2024-01-09T01:33:07.955Z,6.70
2024-01-09T01:35:39.112Z,7.80
2024-01-09T01:38:10.120Z,8.40
2024-01-09T01:40:41.047Z,8.20
2024-01-09T01:43:12.026Z,8.40
2024-01-09T01:45:42.928Z,7.80
2024-01-09T01:48:14.497Z,6.80
2024-01-09T01:50:45.816Z,7.40
2024-01-09T01:53:16.935Z,7.70
2024-01-09T01:55:48.646Z,7.70
2024-01-09T01:58:19.828Z,8.90
2024-01-09T02:00:51.644Z,7.40
2024-01-09T02:03:22.878Z,8.50
2024-01-09T02:05:54.895Z,7.40
2024-01-09T02:08:29.715Z,7.30
2024-01-09T02:11:00.781Z,7.10
2024-01-09T02:13:31.756Z,7.30
2024-01-09T02:16:02.987Z,6.60
2024-01-09T02:18:34.014Z,6.30
2024-01-09T02:21:05.054Z,6.90
2024-01-09T02:23:36.044Z,6.80
2024-01-09T02:26:08.855Z,7.70
2024-01-09T02:28:49.088Z,7.50
2024-01-09T02:31:20.646Z,6.50
2024-01-09T02:33:51.755Z,7.60
2024-01-09T02:36:22.770Z,6.80
2024-01-09T02:38:53.852Z,7.60
2024-01-09T02:41:24.834Z,8.50
2024-01-09T02:43:55.792Z,9.40
2024-01-09T02:46:26.717Z,6.70
2024-01-09T02:48:57.779Z,7.40
2024-01-09T02:51:28.818Z,6.90
2024-01-09T02:53:59.734Z,7.80
2024-01-09T02:56:30.707Z,6.70
2024-01-09T02:59:01.647Z,8.00
2024-01-09T03:01:32.555Z,6.70
2024-01-09T03:04:03.521Z,7.60
2024-01-09T03:06:34.700Z,7.30
2024-01-09T03:09:05.900Z,7.60
2024-01-09T03:11:36.930Z,8.30
2024-01-09T03:14:07.897Z,7.40
2024-01-09T03:16:38.904Z,7.50
2024-01-09T03:19:10.007Z,7.30
2024-01-09T03:21:40.949Z,7.50
2024-01-09T03:24:11.914Z,7.60
2024-01-09T03:26:42.893Z,7.30
2024-01-09T03:29:13.888Z,7.90
2024-01-09T03:31:44.846Z,8.50
2024-01-09T03:34:16.123Z,8.00
2024-01-09T03:36:47.755Z,8.80
2024-01-09T03:39:18.784Z,7.90
2024-01-09T03:41:50.031Z,8.20
2024-01-09T03:44:21.090Z,8.20
2024-01-09T03:46:52.063Z,7.40
2024-01-09T03:49:23.114Z,7.40
2024-01-09T03:51:54.194Z,7.70
2024-01-09T03:54:25.166Z,7.30
2024-01-09T03:56:56.214Z,8.60
2024-01-09T03:59:27.552Z,7.10
2024-01-09T04:01:58.562Z,7.70
2024-01-09T04:04:29.506Z,7.00
2024-01-09T04:07:00.448Z,7.60
2024-01-09T04:09:31.401Z,7.90
2024-01-09T04:12:02.343Z,7.00
2024-01-09T04:14:34.305Z,7.40
2024-01-09T04:17:07.026Z,7.90
2024-01-09T04:19:41.190Z,8.80
2024-01-09T04:22:12.121Z,8.80
2024-01-09T04:27:12.285Z,8.00
2024-01-09T04:32:12.603Z,8.20
2024-01-09T04:34:44.536Z,7.20
2024-01-09T04:37:15.656Z,6.90
2024-01-09T04:39:46.565Z,7.40
2024-01-09T04:42:17.970Z,7.70
2024-01-09T04:44:49.412Z,7.00
2024-01-09T04:47:21.730Z,7.50
2024-01-09T04:49:52.671Z,6.60
2024-01-09T04:52:23.636Z,7.90
2024-01-09T04:54:54.561Z,9.10
2024-01-09T04:57:25.479Z,7.90
2024-01-09T04:59:56.476Z,8.70
2024-01-09T05:02:27.441Z,8.10
2024-01-09T05:04:58.424Z,9.30
2024-01-09T05:07:29.337Z,8.40
2024-01-09T05:12:29.639Z,9.20
2024-01-09T05:15:00.936Z,8.10
2024-01-09T05:17:32.095Z,7.80
2024-01-09T05:20:03.166Z,6.60
2024-01-09T05:22:35.914Z,7.30
2024-01-09T05:25:07.937Z,6.30
2024-01-09T05:27:38.873Z,7.30
2024-01-09T05:30:12.093Z,7.40
2024-01-09T05:32:43.308Z,8.40
2024-01-09T05:35:15.166Z,7.40
2024-01-09T05:37:46.103Z,7.50
2024-01-09T05:40:18.509Z,7.40
2024-01-09T05:42:49.480Z,7.80
2024-01-09T05:45:20.711Z,7.00
2024-01-09T05:47:51.967Z,7.30
2024-01-09T05:50:23.037Z,7.70
2024-01-09T05:52:53.942Z,9.20
2024-01-09T05:55:25.378Z,10.70
2024-01-09T05:57:56.347Z,8.70
2024-01-09T06:00:27.304Z,8.80
2024-01-09T06:02:58.270Z,8.10
2024-01-09T06:05:29.498Z,8.10
2024-01-09T06:08:00.536Z,7.50
2024-01-09T06:13:00.783Z,8.10
2024-01-09T06:15:31.815Z,8.90
2024-01-09T06:18:03.014Z,7.40
2024-01-09T06:20:34.380Z,7.50
2024-01-09T06:23:05.565Z,7.80
2024-01-09T06:25:36.491Z,7.90
2024-01-09T06:28:11.456Z,8.30
2024-01-09T06:30:42.945Z,7.90
2024-01-09T06:33:14.217Z,7.20
2024-01-09T06:35:45.278Z,9.10
2024-01-09T06:38:16.319Z,7.60
2024-01-09T06:40:47.700Z,7.10
2024-01-09T06:43:18.698Z,8.10
2024-01-09T06:45:49.610Z,7.60
2024-01-09T06:48:20.852Z,6.70
2024-01-09T06:50:53.402Z,8.00
2024-01-09T06:53:24.351Z,10.90
2024-01-09T06:55:55.266Z,8.60
2024-01-09T06:58:26.157Z,8.30
2024-01-09T07:00:57.216Z,8.60
2024-01-09T07:03:28.258Z,7.00
2024-01-09T07:05:59.450Z,7.30
2024-01-09T07:08:30.433Z,8.80
2024-01-09T07:11:01.380Z,8.60
2024-01-09T07:13:32.305Z,8.50
2024-01-09T07:16:03.607Z,9.40
2024-01-09T07:18:34.668Z,8.30
2024-01-09T07:21:06.101Z,9.30
2024-01-09T07:23:37.156Z,10.00
2024-01-09T07:26:08.613Z,9.10
2024-01-09T07:28:39.588Z,8.40
2024-01-09T07:31:10.778Z,8.20
2024-01-09T07:33:42.188Z,8.50
2024-01-09T07:36:13.354Z,7.50
2024-01-09T07:38:44.323Z,8.60
2024-01-09T07:41:18.640Z,8.10
2024-01-09T07:43:49.601Z,7.80
2024-01-09T07:46:20.556Z,7.20
2024-01-09T07:48:51.563Z,15.00
2024-01-09T07:51:22.538Z,13.70
2024-01-09T07:53:53.582Z,9.70
2024-01-09T07:56:24.720Z,8.00
2024-01-09T07:58:55.949Z,8.10
2024-01-09T08:01:28.958Z,8.30
2024-01-09T08:03:59.910Z,8.50
2024-01-09T08:06:31.037Z,7.90
2024-01-09T08:09:02.258Z,8.80
2024-01-09T08:11:33.360Z,9.30
2024-01-09T08:14:04.291Z,10.60
2024-01-09T08:16:35.188Z,12.00
2024-01-09T08:19:06.572Z,10.10
2024-01-09T08:21:40.854Z,9.60
2024-01-09T08:24:19.944Z,8.10
2024-01-09T08:26:51.469Z,9.00
2024-01-09T08:29:28.191Z,9.50
2024-01-09T08:31:59.171Z,9.30
2024-01-09T08:34:30.360Z,8.00
2024-01-09T08:37:01.522Z,9.90
2024-01-09T08:39:32.414Z,9.50
2024-01-09T08:42:03.511Z,7.60
2024-01-09T08:44:34.509Z,9.40
2024-01-09T08:47:05.772Z,10.10
2024-01-09T08:49:36.838Z,9.60
2024-01-09T08:52:08.571Z,8.50
2024-01-09T08:54:39.445Z,7.90
2024-01-09T08:57:10.382Z,8.80
2024-01-09T08:59:41.356Z,8.00
2024-01-09T09:02:12.366Z,8.30
2024-01-09T09:04:43.523Z,8.60
2024-01-09T09:07:16.211Z,8.60
2024-01-09T09:09:47.494Z,9.00
2024-01-09T09:12:18.456Z,9.00
2024-01-09T09:14:50.210Z,8.40
2024-01-09T09:17:21.210Z,7.90
2024-01-09T09:19:52.237Z,8.80
2024-01-09T09:22:26.948Z,9.00
2024-01-09T09:24:58.004Z,8.10
2024-01-09T09:27:29.023Z,7.40
2024-01-09T09:30:00.280Z,7.00
2024-01-09T09:32:32.727Z,8.50
2024-01-09T09:35:03.881Z,7.00
2024-01-09T09:37:35.986Z,7.40
2024-01-09T09:40:07.917Z,7.40
2024-01-09T09:42:39.745Z,7.60
2024-01-09T09:45:16.734Z,7.80
2024-01-09T09:50:18.986Z,7.70
2024-01-09T09:52:50.886Z,6.70
2024-01-09T09:55:22.240Z,6.90
2024-01-09T09:57:53.194Z,5.30
2024-01-09T10:00:24.260Z,9.20
2024-01-09T10:03:00.500Z,8.40
2024-01-09T10:05:36.404Z,6.80
2024-01-09T10:08:14.405Z,7.30
2024-01-09T10:10:45.373Z,6.50
2024-01-09T10:13:16.392Z,6.00
2024-01-09T10:16:04.325Z,6.10
2024-01-09T10:18:40.653Z,6.00
2024-01-09T10:21:11.813Z,5.60
2024-01-09T10:23:44.453Z,6.40
2024-01-09T10:26:15.554Z,6.10
2024-01-09T10:28:48.378Z,6.40
2024-01-09T10:31:19.352Z,6.70
2024-01-09T10:33:50.497Z,6.80
2024-01-09T10:36:21.644Z,7.20
2024-01-09T10:38:52.646Z,7.60
2024-01-09T10:41:25.068Z,4.70
2024-01-09T10:43:56.192Z,5.70
2024-01-09T10:46:30.729Z,8.10
2024-01-09T10:49:02.031Z,7.30
2024-01-09T10:51:33.511Z,6.50
2024-01-09T10:54:07.652Z,6.10
2024-01-09T10:56:40.006Z,6.70
2024-01-09T10:59:16.213Z,6.40
2024-01-09T11:01:47.227Z,6.20
2024-01-09T11:04:18.240Z,6.00
2024-01-09T11:06:50.305Z,6.50
2024-01-09T11:09:22.756Z,5.40
2024-01-09T11:11:54.409Z,4.60
2024-01-09T11:14:27.063Z,6.00
2024-01-09T11:17:00.281Z,6.30
2024-01-09T11:19:32.114Z,5.10
2024-01-09T11:22:15.684Z,5.80
2024-01-09T11:24:50.909Z,5.70
2024-01-09T11:27:22.372Z,4.90
2024-01-09T11:29:55.285Z,5.10
2024-01-09T11:32:31.869Z,4.40
2024-01-09T11:35:17.518Z,4.90
2024-01-09T11:37:49.872Z,3.90
2024-01-09T11:40:22.796Z,5.20
2024-01-09T11:42:55.302Z,4.00
2024-01-09T11:45:27.900Z,4.10
2024-01-09T11:47:59.180Z,5.00
2024-01-09T11:50:30.299Z,4.50
2024-01-09T11:53:02.471Z,4.20
2024-01-09T11:55:33.487Z,4.70
2024-01-09T11:58:04.681Z,4.20
2024-01-09T12:00:37.906Z,5.00
2024-01-09T12:03:09.144Z,5.00
2024-01-09T12:05:40.542Z,5.00
2024-01-09T12:08:11.713Z,3.50
2024-01-09T12:10:49.218Z,4.30
2024-01-09T12:13:21.489Z,4.70
2024-01-09T12:15:52.508Z,4.20
2024-01-09T12:18:23.606Z,4.50
2024-01-09T12:20:55.146Z,3.70
2024-01-09T12:23:26.880Z,4.90
2024-01-09T12:25:59.485Z,3.60
2024-01-09T12:28:30.946Z,4.20
2024-01-09T12:31:03.769Z,4.30
2024-01-09T12:33:35.046Z,4.30
2024-01-09T12:36:06.844Z,4.50
2024-01-09T12:38:38.822Z,4.50
2024-01-09T12:41:09.841Z,4.30
2024-01-09T12:43:40.756Z,4.40
2024-01-09T12:46:11.692Z,3.20
2024-01-09T12:48:44.244Z,5.30
2024-01-09T12:51:16.334Z,3.90
2024-01-09T12:53:49.065Z,4.10
2024-01-09T12:56:20.111Z,3.70
2024-01-09T12:58:51.075Z,4.20
2024-01-09T13:01:22.433Z,3.50
2024-01-09T13:03:53.577Z,3.50
2024-01-09T13:06:24.984Z,4.00
2024-01-09T13:08:56.173Z,3.90
2024-01-09T13:11:27.464Z,3.20
2024-01-09T13:14:00.624Z,3.30
2024-01-09T13:16:31.838Z,4.20
2024-01-09T13:19:03.080Z,4.00
2024-01-09T13:21:34.872Z,4.40
2024-01-09T13:24:08.900Z,3.80
2024-01-09T13:26:41.265Z,3.60
2024-01-09T13:30:43.833Z,3.70
2024-01-09T13:32:04.244Z,3.50
2024-01-09T13:34:35.454Z,4.10
2024-01-09T13:37:07.573Z,4.30
2024-01-09T13:39:38.481Z,4.90
2024-01-09T13:42:10.688Z,5.00
2024-01-09T13:44:41.981Z,4.30
2024-01-09T13:47:12.989Z,3.80
2024-01-09T13:52:17.950Z,3.50
2024-01-09T13:54:48.981Z,4.20
2024-01-09T13:57:19.894Z,4.40
2024-01-09T13:59:51.220Z,4.00
2024-01-09T14:02:22.233Z,4.00
2024-01-09T14:04:53.377Z,2.60
2024-01-09T14:07:24.385Z,3.70
2024-01-09T14:09:55.363Z,3.50
2024-01-09T14:12:26.290Z,3.40
2024-01-09T14:16:54.313Z,3.20
2024-01-09T14:18:26.817Z,4.70
2024-01-09T14:20:58.125Z,3.80
2024-01-09T14:23:29.095Z,3.70
2024-01-09T14:26:00.074Z,3.20
2024-01-09T14:28:31.269Z,4.10
2024-01-09T14:31:04.458Z,2.90
2024-01-09T14:33:35.611Z,2.40
2024-01-09T14:36:07.554Z,4.10
2024-01-09T14:38:38.659Z,3.90
2024-01-09T14:41:11.795Z,3.00
2024-01-09T14:43:43.321Z,4.20
2024-01-09T14:46:18.408Z,2.80
2024-01-09T14:48:49.623Z,2.80
2024-01-09T14:51:20.835Z,3.30
2024-01-09T14:53:51.748Z,3.00
2024-01-09T14:56:23.405Z,3.10
2024-01-09T14:58:54.363Z,3.10
2024-01-09T15:01:25.418Z,2.70
2024-01-09T15:03:57.877Z,3.30
2024-01-09T15:06:28.828Z,4.40
2024-01-09T15:11:30.608Z,2.70
2024-01-09T15:14:01.621Z,4.00
2024-01-09T15:16:32.765Z,3.30
2024-01-09T15:19:03.874Z,4.00
2024-01-09T15:21:35.161Z,4.40
2024-01-09T15:24:07.618Z,5.50
2024-01-09T15:26:42.114Z,5.10
2024-01-09T15:29:13.133Z,4.60
2024-01-09T15:31:44.119Z,4.80
2024-01-09T15:34:15.404Z,8.10
2024-01-09T15:36:46.561Z,5.50
2024-01-09T15:39:18.128Z,3.60
2024-01-09T15:41:49.446Z,3.90
2024-01-09T15:44:20.431Z,4.40
2024-01-09T15:46:51.494Z,5.20
2024-01-09T15:49:22.652Z,4.90
2024-01-09T15:51:54.370Z,4.90
2024-01-09T15:54:28.209Z,4.40
2024-01-09T15:56:59.266Z,3.70
2024-01-09T15:59:30.983Z,4.50
2024-01-09T16:02:02.074Z,4.00
2024-01-09T16:04:33.340Z,3.90
2024-01-09T16:07:04.770Z,4.60
2024-01-09T16:09:35.692Z,3.70
2024-01-09T16:12:07.426Z,3.90
2024-01-09T16:14:40.571Z,4.20
2024-01-09T16:17:11.616Z,4.30
2024-01-09T16:19:42.703Z,4.20
2024-01-09T16:22:13.671Z,5.30
2024-01-09T16:24:44.829Z,5.20
2024-01-09T16:27:17.002Z,5.00
2024-01-09T16:29:47.912Z,5.70
2024-01-09T16:32:18.956Z,5.40
2024-01-09T16:34:50.128Z,4.50
2024-01-09T16:37:21.116Z,6.10
2024-01-09T16:39:52.577Z,5.40
2024-01-09T16:42:23.642Z,4.40
2024-01-09T16:44:54.538Z,4.70
2024-01-09T16:49:55.327Z,3.70
2024-01-09T16:52:26.446Z,4.80
2024-01-09T16:54:57.493Z,4.60
2024-01-09T16:57:29.118Z,4.10
2024-01-09T17:00:00.021Z,3.70
2024-01-09T17:05:01.337Z,4.10
2024-01-09T17:07:32.493Z,4.40
2024-01-09T17:10:04.032Z,4.30
2024-01-09T17:12:34.989Z,4.00
2024-01-09T17:17:36.411Z,3.50
2024-01-09T17:20:10.547Z,3.50
2024-01-09T17:22:42.131Z,3.30
2024-01-09T17:25:13.326Z,3.70
2024-01-09T17:27:44.479Z,3.90
2024-01-09T17:30:17.745Z,3.30
2024-01-09T17:32:48.895Z,5.00
2024-01-09T17:35:22.363Z,3.50
2024-01-09T17:37:53.488Z,3.10
2024-01-09T17:40:24.436Z,4.00
2024-01-09T17:42:56.188Z,4.10
2024-01-09T17:45:28.413Z,3.70
2024-01-09T17:47:59.481Z,5.00
2024-01-09T17:50:32.876Z,5.90
2024-01-09T17:53:04.670Z,4.40
2024-01-09T17:55:37.830Z,5.00
2024-01-09T17:58:10.440Z,4.00
2024-01-09T18:00:44.667Z,3.70
2024-01-09T18:03:16.415Z,4.30
2024-01-09T18:05:50.254Z,4.20
2024-01-09T18:08:23.834Z,4.20
2024-01-09T18:10:55.789Z,3.20
2024-01-09T18:13:27.835Z,3.70
2024-01-09T18:15:58.877Z,4.40
2024-01-09T18:18:32.518Z,4.10
2024-01-09T18:21:06.175Z,4.60
2024-01-09T18:23:38.149Z,4.40
2024-01-09T18:26:13.009Z,4.50
2024-01-09T18:28:45.508Z,4.90
2024-01-09T18:31:17.088Z,4.50
2024-01-09T18:33:48.568Z,4.00
2024-01-09T18:36:19.588Z,4.20
2024-01-09T18:38:50.822Z,11.80
2024-01-09T18:41:25.774Z,6.30
2024-01-09T18:43:56.803Z,4.90
2024-01-09T18:46:28.188Z,4.80
2024-01-09T18:48:59.807Z,4.30
2024-01-09T18:51:33.633Z,3.60
2024-01-09T18:54:05.429Z,3.70
2024-01-09T18:56:37.414Z,3.90
2024-01-09T18:59:09.077Z,3.80
2024-01-09T19:01:41.925Z,4.90
2024-01-09T19:04:18.953Z,4.60
2024-01-09T19:09:20.591Z,4.20
2024-01-09T19:11:51.519Z,5.20
2024-01-09T19:14:22.560Z,4.70
2024-01-09T19:16:55.894Z,4.70
2024-01-09T19:19:27.499Z,4.40
2024-01-09T19:21:59.052Z,4.20
2024-01-09T19:24:30.005Z,6.00
2024-01-09T19:27:02.077Z,5.50
2024-01-09T19:29:34.101Z,5.60
2024-01-09T19:32:05.715Z,5.30
2024-01-09T19:34:42.090Z,4.90
2024-01-09T19:37:15.382Z,5.10
2024-01-09T19:39:48.302Z,5.00
2024-01-09T19:42:19.298Z,5.00
2024-01-09T19:44:52.952Z,4.50
2024-01-09T19:47:23.961Z,5.90
2024-01-09T19:49:57.979Z,6.00
2024-01-09T19:52:29.310Z,4.50
2024-01-09T19:55:00.931Z,5.20
2024-01-09T19:57:32.893Z,5.10
2024-01-09T20:00:06.871Z,5.10
2024-01-09T20:02:38.063Z,6.20
2024-01-09T20:05:12.499Z,6.70
2024-01-09T20:07:43.651Z,6.70
2024-01-09T20:10:15.027Z,6.40
2024-01-09T20:12:47.624Z,6.10
2024-01-09T20:15:19.226Z,5.60
2024-01-09T20:17:50.180Z,5.00
2024-01-09T20:20:21.312Z,5.70
2024-01-09T20:22:52.594Z,5.90
2024-01-09T20:25:23.521Z,5.20
2024-01-09T20:27:54.446Z,5.40
2024-01-09T20:30:26.683Z,5.50
2024-01-09T20:32:57.694Z,5.90
2024-01-09T20:35:28.803Z,5.70
2024-01-09T20:38:01.116Z,5.00
2024-01-09T20:40:32.339Z,4.40
2024-01-09T20:43:03.327Z,6.10
2024-01-09T20:45:34.424Z,4.80
2024-01-09T20:48:06.315Z,5.30
2024-01-09T20:50:37.324Z,4.90
2024-01-09T20:53:10.769Z,5.30
2024-01-09T20:55:42.010Z,5.40
2024-01-09T20:58:13.200Z,4.70
2024-01-09T21:00:46.078Z,4.80
2024-01-09T21:03:17.566Z,6.90
2024-01-09T21:05:49.887Z,5.90
2024-01-09T21:08:21.820Z,5.80
2024-01-09T21:10:53.354Z,5.60
2024-01-09T21:13:24.704Z,6.50
2024-01-09T21:15:55.633Z,7.40
2024-01-09T21:18:26.965Z,7.80
2024-01-09T21:20:58.787Z,8.00
2024-01-09T21:23:35.572Z,6.20
2024-01-09T21:26:14.725Z,6.40
2024-01-09T21:28:46.199Z,6.40
2024-01-09T21:31:17.256Z,6.30
2024-01-09T21:33:51.471Z,6.60
2024-01-09T21:36:22.431Z,6.20
2024-01-09T21:38:53.498Z,5.40
2024-01-09T21:41:24.473Z,6.30
2024-01-09T21:43:55.592Z,5.10
2024-01-09T21:46:27.928Z,4.10
2024-01-09T21:48:58.891Z,5.00
2024-01-09T21:51:30.151Z,4.50
2024-01-09T21:54:02.124Z,5.00
2024-01-09T21:56:33.180Z,4.20
2024-01-09T21:59:05.556Z,3.70
2024-01-09T22:01:37.463Z,4.20
2024-01-09T22:04:08.554Z,3.90
2024-01-09T22:06:44.874Z,4.40
2024-01-09T22:09:15.855Z,4.50
2024-01-09T22:14:16.395Z,4.50
2024-01-09T22:16:47.447Z,4.00
2024-01-09T22:19:18.512Z,4.00
2024-01-09T22:21:49.519Z,4.70
2024-01-09T22:24:20.843Z,3.60
2024-01-09T22:26:52.212Z,3.80
2024-01-09T22:29:23.217Z,3.60
2024-01-09T22:31:56.417Z,3.10
2024-01-09T22:34:27.517Z,3.60
2024-01-09T22:36:58.435Z,3.80
2024-01-09T22:39:29.378Z,3.90
2024-01-09T22:42:00.277Z,3.50
2024-01-09T22:44:31.170Z,4.30
2024-01-09T22:49:31.450Z,3.30
2024-01-09T22:52:02.475Z,4.00
2024-01-09T22:54:33.790Z,3.30
2024-01-09T22:57:05.383Z,3.50
2024-01-09T22:59:36.300Z,4.00
2024-01-09T23:02:07.669Z,4.30
2024-01-09T23:04:43.151Z,4.40
2024-01-09T23:07:14.231Z,3.70
2024-01-09T23:09:45.097Z,3.90
2024-01-09T23:12:16.074Z,3.80
2024-01-09T23:14:47.007Z,3.80
2024-01-09T23:17:20.073Z,3.60
2024-01-09T23:19:51.581Z,3.90
2024-01-09T23:22:22.537Z,4.10
2024-01-09T23:24:53.421Z,4.00
2024-01-09T23:29:54.608Z,3.10
2024-01-09T23:32:26.492Z,3.40
2024-01-09T23:35:01.784Z,3.80
2024-01-09T23:37:35.006Z,3.70
2024-01-09T23:40:07.385Z,4.10
2024-01-09T23:42:38.312Z,3.10
2024-01-09T23:45:12.000Z,2.80
2024-01-09T23:47:43.154Z,3.50
2024-01-09T23:50:15.361Z,3.50
2024-01-09T23:52:46.277Z,3.50
2024-01-09T23:57:46.924Z,3.30
